Time;durP1;ratioP1;P1;durP2;ratioP2;P2;SDS_P1;SDS_P2;PMS_P1;PMS_P2;Temp;Humidity;BMP_temperature;BMP_pressure;BME280_temperature;BME280_humidity;BME280_pressure;Samples;Min_cycle;Max_cycle;Signal;HPM_P1;HPM_P2
2023/05/16 00:00:08;;;;;;;11.40;9.20;;;;;;;11.72;100.00;99538.34;187340;1232;43139;-60
2023/05/16 00:04:29;;;;;;;16.00;10.20;;;;;;;11.74;100.00;99543.51;187291;1232;43605;-60
2023/05/16 00:08:30;;;;;;;12.90;7.00;;;;;;;11.72;100.00;99539.01;187322;1232;58215;-60
2023/05/16 00:12:32;;;;;;;8.50;7.50;;;;;;;11.68;100.00;99539.95;187311;1232;43349;-60
2023/05/16 00:22:16;;;;;;;8.60;7.40;;;;;;;11.60;100.00;99539.02;187317;1232;43038;-60
2023/05/16 00:26:18;;;;;;;9.50;7.90;;;;;;;11.52;100.00;99540.10;187236;1232;43656;-60
2023/05/16 00:30:19;;;;;;;10.20;7.60;;;;;;;11.46;100.00;99542.29;187362;1232;59607;-60
2023/05/16 00:34:26;;;;;;;10.10;7.70;;;;;;;11.40;100.00;99543.01;187141;1235;43089;-60
2023/05/16 00:38:28;;;;;;;7.90;7.10;;;;;;;11.40;100.00;99540.52;187324;1232;43006;-60
2023/05/16 00:42:29;;;;;;;12.40;8.70;;;;;;;11.39;100.00;99541.69;187293;1232;43366;-60
2023/05/16 00:46:31;;;;;;;10.30;7.20;;;;;;;11.36;100.00;99536.13;187292;1232;43547;-60
2023/05/16 00:50:36;;;;;;;17.60;8.40;;;;;;;11.29;100.00;99541.89;187206;1236;58118;-60
2023/05/16 00:54:37;;;;;;;13.10;9.30;;;;;;;11.22;100.00;99557.30;187315;1232;42988;-60
2023/05/16 00:58:38;;;;;;;9.90;8.90;;;;;;;11.19;100.00;99556.73;187313;1232;43658;-60
2023/05/16 01:02:42;;;;;;;8.00;7.20;;;;;;;11.19;100.00;99568.83;187211;1232;42981;-60
2023/05/16 01:06:44;;;;;;;9.30;8.40;;;;;;;11.20;100.00;99569.98;187347;1232;42939;-60
2023/05/16 01:11:14;;;;;;;17.10;9.50;;;;;;;11.23;100.00;99571.46;187267;1232;57462;-60
2023/05/16 01:16:00;;;;;;;12.80;9.70;;;;;;;11.25;100.00;99582.42;187340;1232;43316;-59
2023/05/16 01:20:18;;;;;;;9.40;8.30;;;;;;;11.30;100.00;99586.35;185940;1241;43567;-60
2023/05/16 01:25:12;;;;;;;14.50;8.70;;;;;;;11.37;100.00;99585.75;186005;1240;43735;-60
2023/05/16 01:29:15;;;;;;;9.00;8.00;;;;;;;11.44;100.00;99591.10;185944;1244;43924;-60
2023/05/16 01:33:16;;;;;;;9.90;8.90;;;;;;;11.46;100.00;99589.98;186089;1241;59232;-60
2023/05/16 01:37:20;;;;;;;11.20;9.40;;;;;;;11.46;100.00;99587.86;186120;1241;43060;-60
2023/05/16 01:41:53;;;;;;;12.40;9.10;;;;;;;11.46;100.00;99598.33;186137;1241;43346;-60
2023/05/16 01:46:01;;;;;;;11.40;8.90;;;;;;;11.47;100.00;99608.08;186057;1242;43042;-59
2023/05/16 01:50:10;;;;;;;10.40;9.30;;;;;;;11.46;100.00;99606.20;185983;1241;43647;-60
2023/05/16 01:54:14;;;;;;;8.40;7.50;;;;;;;11.45;100.00;99607.70;186912;1232;58059;-60
2023/05/16 01:58:41;;;;;;;12.30;8.80;;;;;;;11.48;100.00;99611.70;187383;1232;43045;-60
2023/05/16 02:02:42;;;;;;;10.50;8.90;;;;;;;11.51;100.00;99616.53;187357;1233;42931;-60
2023/05/16 02:06:44;;;;;;;9.70;7.80;;;;;;;11.51;100.00;99617.73;187361;1234;43696;-60
2023/05/16 02:10:58;;;;;;;10.90;9.10;;;;;;;11.51;100.00;99620.27;187310;1236;42979;-60
2023/05/16 02:15:00;;;;;;;12.90;8.90;;;;;;;11.49;100.00;99620.63;187207;1232;59398;-60
2023/05/16 02:19:01;;;;;;;9.80;7.10;;;;;;;11.46;100.00;99621.40;187421;1232;43038;-60
2023/05/16 02:23:02;;;;;;;13.60;8.10;;;;;;;11.44;100.00;99614.57;187287;1232;43090;-60
2023/05/16 02:27:05;;;;;;;14.90;8.50;;;;;;;11.39;100.00;99619.81;187325;1232;43671;-60
2023/05/16 02:31:06;;;;;;;13.90;8.80;;;;;;;11.33;100.00;99624.29;187005;1232;43763;-60
2023/05/16 02:35:08;;;;;;;10.70;9.60;;;;;;;11.30;100.00;99627.05;187307;1232;57876;-60
2023/05/16 02:39:12;;;;;;;12.00;9.30;;;;;;;11.29;100.00;99624.61;187271;1232;43628;-60
2023/05/16 02:43:14;;;;;;;10.10;8.50;;;;;;;11.29;100.00;99625.37;187287;1232;43833;-60
2023/05/16 02:47:15;;;;;;;9.70;8.80;;;;;;;11.32;100.00;99631.84;187164;1236;43028;-60
2023/05/16 02:51:20;;;;;;;11.10;8.90;;;;;;;11.39;100.00;99634.54;187319;1233;43300;-60
2023/05/16 02:55:21;;;;;;;9.80;7.90;;;;;;;11.38;100.00;99638.88;187282;1232;57990;-59
2023/05/16 02:59:39;;;;;;;14.10;9.70;;;;;;;11.50;100.00;99644.17;187279;1233;43361;-59
2023/05/16 03:03:42;;;;;;;15.10;9.00;;;;;;;11.64;100.00;99645.48;187242;1232;43611;-60
2023/05/16 03:07:43;;;;;;;15.00;9.50;;;;;;;11.77;100.00;99644.22;187293;1232;43051;-60
2023/05/16 03:11:45;;;;;;;9.10;8.20;;;;;;;11.89;100.00;99643.39;187269;1232;42960;-59
2023/05/16 03:15:46;;;;;;;10.90;9.10;;;;;;;11.98;100.00;99641.16;187279;1235;58327;-60
2023/05/16 03:19:48;;;;;;;10.20;8.60;;;;;;;12.06;100.00;99645.38;187317;1232;43399;-59
2023/05/16 03:24:40;;;;;;;10.70;7.80;;;;;;;12.15;100.00;99651.20;187335;1232;42965;-59
2023/05/16 03:28:41;;;;;;;10.60;9.50;;;;;;;12.20;100.00;99648.96;187137;1232;43310;-59
2023/05/16 03:32:54;;;;;;;9.00;8.10;;;;;;;12.18;100.00;99651.51;187245;1232;43699;-59
2023/05/16 03:36:56;;;;;;;10.80;7.70;;;;;;;12.10;100.00;99651.53;187253;1232;58102;-59
2023/05/16 03:55:35;;;;;;;15.60;8.90;;;;;;;12.55;100.00;99690.69;187240;1233;83244;-59
2023/05/16 04:04:32;;;;;;;9.30;8.40;;;;;;;12.82;100.00;99684.10;187252;1234;42929;-59
2023/05/16 04:08:40;;;;;;;10.80;9.10;;;;;;;13.06;100.00;99694.91;187222;1234;43336;-59
2023/05/16 04:12:41;;;;;;;12.50;10.60;;;;;;;13.50;100.00;99695.55;186833;1234;43013;-59
2023/05/16 04:16:42;;;;;;;13.60;9.60;;;;;;;14.35;100.00;99702.95;187247;1233;42922;-60
2023/05/16 04:20:46;;;;;;;10.60;9.40;;;;;;;15.32;100.00;99692.27;187256;1237;59388;-59
2023/05/16 04:24:48;;;;;;;10.60;7.50;;;;;;;16.30;99.09;99687.78;187035;1234;43703;-59
2023/05/16 04:28:49;;;;;;;11.40;8.60;;;;;;;16.63;89.54;99685.20;187086;1234;43815;-59
2023/05/16 04:33:02;;;;;;;10.20;9.10;;;;;;;16.93;87.45;99688.02;187289;1234;42980;-60
2023/05/16 04:37:04;;;;;;;9.40;8.10;;;;;;;17.11;85.23;99689.30;187138;1233;43043;-59
2023/05/16 04:41:08;;;;;;;12.80;8.20;;;;;;;17.16;84.99;99693.35;187325;1234;58000;-62
2023/05/16 04:45:10;;;;;;;9.50;8.70;;;;;;;17.45;84.61;99703.39;187059;1233;43061;-63
2023/05/16 04:49:38;;;;;;;9.40;7.90;;;;;;;17.51;82.91;99709.94;187234;1234;43528;-62
2023/05/16 04:53:39;;;;;;;7.90;7.20;;;;;;;17.49;83.41;99719.88;187306;1233;43003;-62
2023/05/16 04:57:41;;;;;;;9.90;8.50;;;;;;;17.66;83.87;99728.83;187235;1233;43621;-64
2023/05/16 05:01:42;;;;;;;11.30;8.50;;;;;;;18.01;83.55;99737.37;187162;1233;43840;-63
2023/05/16 05:05:45;;;;;;;9.00;7.00;;;;;;;18.32;82.13;99751.16;187009;1233;43699;-62
2023/05/16 05:09:46;;;;;;;9.30;7.10;;;;;;;18.52;81.18;99754.48;187068;1233;42954;-63
2023/05/16 05:13:48;;;;;;;11.70;6.60;;;;;;;18.81;80.34;99757.21;187328;1233;43047;-62
2023/05/16 05:17:52;;;;;;;8.50;7.00;;;;;;;19.05;79.64;99757.82;187271;1234;42974;-62
2023/05/16 05:21:54;;;;;;;12.50;7.00;;;;;;;19.23;79.27;99762.62;187273;1233;58102;-63
2023/05/16 05:26:10;;;;;;;8.90;7.40;;;;;;;19.46;79.40;99771.36;187270;1237;43599;-63
2023/05/16 05:30:51;;;;;;;9.90;7.50;;;;;;;19.71;77.93;99778.33;186237;1236;44002;-91
2023/05/16 05:57:15;;;;;;;16.60;8.50;;;;;;;17.64;87.42;99791.95;186647;1232;88091;-84
2023/05/16 06:01:19;;;;;;;9.30;8.40;;;;;;;17.24;88.06;99799.61;186451;1235;43665;-84
2023/05/16 06:05:22;;;;;;;10.20;9.20;;;;;;;17.16;91.47;99800.50;186392;1232;43658;-83
2023/05/16 06:09:24;;;;;;;10.80;9.80;;;;;;;17.08;90.46;99799.34;186392;1232;58630;-83
2023/05/16 06:13:30;;;;;;;12.50;9.50;;;;;;;17.06;90.49;99798.30;186367;1232;43694;-85
2023/05/16 06:17:32;;;;;;;;;;;;;;;17.36;91.47;99792.93;186423;1236;43664;-84
2023/05/16 06:21:34;;;;;;;10.00;9.00;;;;;;;17.45;89.08;99795.31;186530;1232;43602;-84
2023/05/16 06:25:36;;;;;;;15.10;10.40;;;;;;;17.38;89.21;99795.64;186484;1233;43723;-84
2023/05/16 06:29:38;;;;;;;13.60;11.60;;;;;;;17.08;91.33;99802.83;186377;1235;59515;-84
2023/05/16 06:33:40;;;;;;;11.40;9.70;;;;;;;17.04;92.10;99806.95;186627;1232;43609;-84
2023/05/16 06:37:42;;;;;;;10.70;9.70;;;;;;;16.90;93.16;99809.41;186385;1232;43832;-84
2023/05/16 06:41:44;;;;;;;12.00;10.50;;;;;;;16.71;95.84;99821.13;186327;1233;43838;-84
2023/05/16 06:45:46;;;;;;;10.00;8.70;;;;;;;16.46;97.62;99830.19;186317;1235;43680;-84
2023/05/16 06:49:49;;;;;;;15.90;13.80;;;;;;;16.24;97.68;99832.53;186244;1235;59581;-83
2023/05/16 06:53:51;;;;;;;16.20;12.30;;;;;;;16.08;97.78;99842.32;186098;1235;202279;-84
2023/05/16 07:02:37;;;;;;;17.40;15.50;;;;;;;15.76;100.00;99855.50;186746;1235;42985;-63
2023/05/16 07:06:43;;;;;;;16.20;14.50;;;;;;;15.72;100.00;99867.88;186777;1234;42971;-63
2023/05/16 07:10:45;;;;;;;18.90;16.90;;;;;;;15.69;100.00;99866.64;186763;1234;58607;-64
2023/05/16 07:14:48;;;;;;;15.20;13.40;;;;;;;15.57;100.00;99867.35;187086;1235;43046;-65
2023/05/16 07:18:51;;;;;;;19.40;17.40;;;;;;;15.51;100.00;99864.23;186992;1234;43661;-63
2023/05/16 07:22:56;;;;;;;19.50;17.10;;;;;;;15.63;100.00;99863.13;187001;1234;43806;-63
2023/05/16 07:26:59;;;;;;;21.10;17.10;;;;;;;15.62;100.00;99863.64;186949;1234;43733;-62
2023/05/16 07:42:09;;;;;;;15.50;13.70;;;;;;;15.91;100.00;99872.40;180653;1262;580334;-62
2023/05/16 07:46:11;;;;;;;17.20;15.40;;;;;;;16.02;100.00;99884.08;183755;1244;58255;-63
2023/05/16 07:50:14;;;;;;;16.00;13.70;;;;;;;15.99;100.00;99891.53;183510;1246;45990;-63
2023/05/16 07:54:15;;;;;;;16.80;14.80;;;;;;;16.12;100.00;99893.88;183821;1245;45894;-62
2023/05/16 07:58:17;;;;;;;21.50;17.80;;;;;;;16.07;100.00;99896.08;183745;1244;45849;-62
2023/05/16 08:02:18;;;;;;;20.30;17.20;;;;;;;16.06;100.00;99898.89;184084;1243;43638;-63
2023/05/16 08:06:20;;;;;;;24.70;19.20;;;;;;;16.07;100.00;99898.89;184158;1243;60192;-62
2023/05/16 08:10:22;;;;;;;18.90;16.80;;;;;;;16.14;100.00;99903.30;183903;1244;44057;-63
2023/05/16 08:14:25;;;;;;;22.00;18.50;;;;;;;16.11;100.00;99901.86;183805;1243;43458;-62
2023/05/16 08:18:31;;;;;;;20.30;16.00;;;;;;;16.14;100.00;99907.66;183911;1243;46049;-62
2023/05/16 08:22:33;;;;;;;25.30;19.40;;;;;;;16.09;100.00;99905.09;183911;1245;45956;-62
2023/05/16 08:26:36;;;;;;;23.30;18.70;;;;;;;16.12;100.00;99908.41;183688;1246;57093;-61
2023/05/16 08:30:37;;;;;;;22.00;16.90;;;;;;;16.03;100.00;99914.42;184866;1236;43517;-62
2023/05/16 08:34:43;;;;;;;19.10;14.80;;;;;;;16.00;99.87;99918.80;184779;1236;44797;-63
2023/05/16 08:39:13;;;;;;;19.30;16.00;;;;;;;16.18;98.97;99919.52;184837;1236;45862;-62
2023/05/16 08:43:15;;;;;;;24.20;18.90;;;;;;;16.20;97.94;99927.36;184948;1236;44555;-62
2023/05/16 08:47:43;;;;;;;22.50;16.70;;;;;;;16.38;99.06;99934.10;184687;1236;58468;-61
2023/05/16 08:51:48;;;;;;;20.80;17.60;;;;;;;16.32;98.92;99951.95;184815;1236;45812;-62
2023/05/16 08:55:51;;;;;;;20.70;17.20;;;;;;;16.11;99.98;99954.13;184617;1236;46002;-63
2023/05/16 08:59:56;;;;;;;25.80;20.60;;;;;;;16.05;99.94;99961.20;184603;1236;45400;-62
2023/05/16 09:04:05;;;;;;;22.20;18.30;;;;;;;16.08;100.00;99965.02;184907;1237;43736;-62
2023/05/16 09:08:07;;;;;;;24.00;19.40;;;;;;;16.04;100.00;99961.84;184601;1236;57335;-62
2023/05/16 09:12:09;;;;;;;25.00;16.80;;;;;;;16.05;100.00;99963.17;184769;1237;44739;-63
2023/05/16 09:17:16;;;;;;;27.60;21.00;;;;;;;16.02;100.00;99955.52;184662;1236;45426;-62
2023/05/16 09:21:32;;;;;;;28.00;20.00;;;;;;;15.89;100.00;99968.25;184743;1240;45925;-61
2023/05/16 09:25:39;;;;;;;22.40;19.30;;;;;;;15.83;100.00;99968.96;184964;1236;45989;-62
2023/05/16 09:29:53;;;;;;;23.10;18.00;;;;;;;15.74;100.00;99970.21;184662;1236;58281;-62
2023/05/16 09:33:55;;;;;;;24.40;18.70;;;;;;;15.66;100.00;99983.94;184715;1236;45996;-63
2023/05/16 09:37:57;;;;;;;26.20;18.60;;;;;;;15.62;100.00;99997.83;184782;1236;45874;-62
2023/05/16 09:42:05;;;;;;;24.30;20.80;;;;;;;15.52;100.00;100007.45;184754;1236;44952;-62
2023/05/16 09:46:11;;;;;;;30.20;20.60;;;;;;;15.50;100.00;100017.09;184888;1236;45859;-62
2023/05/16 09:50:14;;;;;;;29.60;20.60;;;;;;;15.48;100.00;100024.58;184466;1236;58856;-62
2023/05/16 09:54:32;;;;;;;27.60;21.00;;;;;;;15.40;100.00;100033.27;184738;1240;45913;-62
2023/05/16 09:58:38;;;;;;;28.10;20.00;;;;;;;15.30;100.00;100033.23;184568;1236;43719;-62
2023/05/16 10:02:44;;;;;;;27.40;21.60;;;;;;;15.21;100.00;100041.85;184546;1236;46024;-62
2023/05/16 10:06:53;;;;;;;25.00;16.50;;;;;;;15.18;100.00;100043.95;184778;1236;44866;-62
2023/05/16 10:10:55;;;;;;;26.80;19.40;;;;;;;15.12;100.00;100050.31;184813;1236;57276;-62
2023/05/16 10:15:03;;;;;;;24.60;18.90;;;;;;;15.20;100.00;100055.16;184646;1236;43608;-62
2023/05/16 10:19:05;;;;;;;29.80;21.20;;;;;;;15.39;100.00;100056.55;184457;1236;44587;-62
2023/05/16 10:23:12;;;;;;;29.00;23.90;;;;;;;15.42;100.00;100049.95;184680;1236;45913;-62
2023/05/16 10:27:14;;;;;;;21.10;17.70;;;;;;;15.33;100.00;100050.77;184608;1236;43719;-62
2023/05/16 10:31:23;;;;;;;26.80;19.00;;;;;;;15.39;100.00;100050.66;184390;1236;58219;-62
2023/05/16 10:35:26;;;;;;;24.30;18.40;;;;;;;15.28;100.00;100054.70;184658;1236;43515;-62
2023/05/16 10:39:29;;;;;;;25.10;20.00;;;;;;;15.36;100.00;100054.78;184671;1237;43606;-61
2023/05/16 10:43:32;;;;;;;27.60;18.50;;;;;;;15.39;100.00;100052.09;184560;1236;45966;-63
2023/05/16 10:47:35;;;;;;;27.90;21.40;;;;;;;15.36;100.00;100053.08;184898;1236;43621;-63
2023/05/16 10:51:37;;;;;;;21.10;18.10;;;;;;;15.33;100.00;100058.97;184710;1236;59005;-62
2023/05/16 10:56:09;;;;;;;28.40;19.80;;;;;;;15.19;100.00;100051.00;184749;1236;45932;-62
2023/05/16 11:00:22;;;;;;;24.00;18.30;;;;;;;15.33;100.00;100044.69;184690;1236;45895;-63
2023/05/16 11:04:50;;;;;;;33.90;20.50;;;;;;;15.42;100.00;100045.13;184698;1236;44613;-62
2023/05/16 11:09:21;;;;;;;25.10;20.10;;;;;;;15.48;100.00;100044.34;184743;1236;43581;-62
2023/05/16 11:13:23;;;;;;;27.60;19.70;;;;;;;15.53;100.00;100038.25;184619;1236;58281;-63
2023/05/16 11:17:27;;;;;;;28.00;20.50;;;;;;;15.47;100.00;100034.25;184762;1236;45955;-63
2023/05/16 11:22:08;;;;;;;30.00;23.10;;;;;;;15.54;100.00;100032.29;184835;1236;43516;-62
2023/05/16 11:26:10;;;;;;;33.20;23.00;;;;;;;15.50;100.00;100030.91;184886;1236;44813;-63
2023/05/16 11:30:18;;;;;;;31.20;24.50;;;;;;;15.55;100.00;100032.90;184757;1236;43477;-63
2023/05/16 11:34:19;;;;;;;27.20;22.00;;;;;;;15.52;100.00;100034.05;184512;1236;59894;-62
2023/05/16 11:38:34;;;;;;;29.30;21.10;;;;;;;15.49;100.00;100042.13;184746;1236;43833;-62
2023/05/16 11:42:43;;;;;;;31.10;23.40;;;;;;;15.49;100.00;100042.66;185077;1236;44874;-62
2023/05/16 11:46:45;;;;;;;28.60;20.30;;;;;;;15.36;100.00;100044.30;184885;1236;45063;-61
2023/05/16 11:50:48;;;;;;;30.20;21.70;;;;;;;15.30;100.00;100048.57;185193;1236;43740;-61
2023/05/16 11:54:53;;;;;;;27.40;20.10;;;;;;;15.19;100.00;100055.09;184952;1236;58309;-62
2023/05/16 11:58:55;;;;;;;29.30;22.40;;;;;;;15.06;100.00;100058.50;185486;1233;46002;-61
2023/05/16 12:03:05;;;;;;;35.90;23.70;;;;;;;15.05;100.00;100067.27;185633;1233;45954;-61
2023/05/16 12:22:25;;;;;;;29.00;20.10;;;;;;;14.68;100.00;100081.21;185450;1233;43539;-62
2023/05/16 12:26:29;;;;;;;41.10;25.00;;;;;;;14.41;100.00;100086.39;185009;1235;44962;-61
2023/05/16 12:30:31;;;;;;;26.90;21.50;;;;;;;14.30;100.00;100094.11;185304;1232;44051;-61
2023/05/16 12:34:35;;;;;;;30.50;24.80;;;;;;;14.41;100.00;100089.79;185351;1233;43785;-61
2023/05/16 12:39:30;;;;;;;31.80;24.30;;;;;;;14.43;100.00;100080.27;185323;1237;58417;-61
2023/05/16 12:43:35;;;;;;;34.20;24.60;;;;;;;14.59;100.00;100077.23;185355;1233;43479;-61
2023/05/16 12:47:37;;;;;;;28.50;23.80;;;;;;;14.70;100.00;100085.58;185021;1233;45977;-61
2023/05/16 12:51:39;;;;;;;29.60;22.70;;;;;;;14.82;100.00;100087.64;185415;1237;45039;-61
2023/05/16 12:55:43;;;;;;;30.30;23.50;;;;;;;14.75;100.00;100093.14;185188;1233;45871;-61
2023/05/16 12:59:46;;;;;;;27.40;19.10;;;;;;;14.74;100.00;100096.11;185078;1233;58495;-60
2023/05/16 13:03:48;;;;;;;31.00;23.40;;;;;;;14.77;100.00;100092.77;185486;1233;46071;-60
2023/05/16 13:07:50;;;;;;;34.60;24.90;;;;;;;14.77;100.00;100085.83;185382;1233;43854;-60
2023/05/16 13:11:52;;;;;;;36.40;26.80;;;;;;;14.82;100.00;100085.36;185358;1235;44993;-60
2023/05/16 13:15:54;;;;;;;37.00;26.50;;;;;;;14.97;100.00;100096.78;185441;1233;46496;-61
2023/05/16 13:19:56;;;;;;;34.40;23.80;;;;;;;15.07;100.00;100103.46;185438;1233;57476;-61
2023/05/16 13:23:58;;;;;;;36.40;23.60;;;;;;;15.02;100.00;100106.26;185185;1234;44802;-61
2023/05/16 13:28:04;;;;;;;26.70;20.10;;;;;;;14.93;100.00;100096.27;185445;1235;46013;-61
2023/05/16 13:32:06;;;;;;;32.90;22.40;;;;;;;14.73;100.00;100092.12;185483;1233;43809;-60
2023/05/16 13:36:08;;;;;;;29.40;22.50;;;;;;;14.39;100.00;100105.46;185521;1233;45264;-60
2023/05/16 13:40:10;;;;;;;23.70;18.40;;;;;;;14.28;100.00;100100.68;185446;1233;59066;-60
2023/05/16 13:44:16;;;;;;;30.00;20.80;;;;;;;14.04;100.00;100107.02;185502;1233;44512;-61
2023/05/16 13:48:18;;;;;;;;;;;;;;;13.79;100.00;100108.35;185552;1233;43449;-61
2023/05/16 13:52:23;;;;;;;31.80;21.40;;;;;;;13.67;100.00;100118.61;185472;1233;44550;-63
2023/05/16 13:56:24;;;;;;;25.40;19.90;;;;;;;13.49;100.00;100129.41;185376;1233;46020;-62
2023/05/16 14:00:26;;;;;;;29.30;22.40;;;;;;;13.27;100.00;100132.58;185411;1233;57695;-62
2023/05/16 14:05:17;;;;;;;30.50;20.10;;;;;;;13.36;100.00;100137.27;184729;1239;43551;-62
2023/05/16 14:09:19;;;;;;;;;;;;;;;13.30;100.00;100131.02;184550;1239;45299;-62
2023/05/16 14:13:25;;;;;;;35.00;23.00;;;;;;;13.31;100.00;100125.81;184593;1239;44915;-62
2023/05/16 14:17:29;;;;;;;27.10;20.70;;;;;;;13.35;100.00;100122.00;184589;1238;44660;-61
2023/05/16 14:21:31;;;;;;;28.10;22.90;;;;;;;13.30;100.00;100116.56;184885;1233;58361;-61
2023/05/16 14:25:32;;;;;;;25.40;18.10;;;;;;;13.32;100.00;100112.84;185283;1233;43679;-62
2023/05/16 14:29:34;;;;;;;29.50;20.40;;;;;;;13.33;100.00;100106.88;185430;1234;43740;-62
2023/05/16 14:33:36;;;;;;;25.80;19.80;;;;;;;13.40;100.00;100112.79;185307;1237;45042;-61
2023/05/16 14:37:38;;;;;;;30.30;21.50;;;;;;;13.43;100.00;100113.45;185407;1233;43557;-62
2023/05/16 14:41:39;;;;;;;24.90;21.20;;;;;;;13.49;100.00;100110.60;185447;1233;58071;-61
2023/05/16 14:45:47;;;;;;;26.00;19.70;;;;;;;13.53;100.00;100115.02;185534;1235;45201;-61
2023/05/16 14:49:48;;;;;;;27.00;19.50;;;;;;;13.57;100.00;100118.73;185462;1233;43547;-61
2023/05/16 14:53:50;;;;;;;27.50;19.00;;;;;;;13.63;100.00;100113.36;185360;1233;45976;-61
2023/05/16 14:57:53;;;;;;;28.20;18.80;;;;;;;13.71;100.00;100113.11;185374;1233;44507;-62
2023/05/16 15:02:31;;;;;;;28.30;19.40;;;;;;;13.76;100.00;100114.39;184650;1241;58434;-62
2023/05/16 15:06:37;;;;;;;23.20;18.70;;;;;;;13.81;100.00;100108.91;184512;1239;43707;-61
2023/05/16 15:10:39;;;;;;;21.50;17.30;;;;;;;13.73;100.00;100113.20;184673;1239;43977;-61
2023/05/16 15:14:40;;;;;;;24.50;20.10;;;;;;;13.81;100.00;100115.16;184667;1241;45371;-62
2023/05/16 15:18:49;;;;;;;25.20;18.30;;;;;;;13.70;100.00;100119.75;184800;1233;45977;-62
2023/05/16 15:22:51;;;;;;;27.30;21.40;;;;;;;13.65;100.00;100119.30;185383;1235;58489;-61
2023/05/16 15:26:54;;;;;;;25.90;18.70;;;;;;;13.65;100.00;100119.04;185533;1232;45928;-61
2023/05/16 15:30:59;;;;;;;;;;;;;;;13.60;100.00;100118.04;185361;1234;45964;-62
2023/05/16 15:35:04;;;;;;;22.20;16.70;;;;;;;13.55;100.00;100116.05;185441;1233;45789;-62
2023/05/16 15:39:05;;;;;;;18.90;16.90;;;;;;;13.57;100.00;100108.68;185332;1233;45925;-62
2023/05/16 15:43:07;;;;;;;31.00;17.10;;;;;;;13.58;100.00;100107.73;185399;1235;57312;-62
2023/05/16 15:47:09;;;;;;;19.30;14.80;;;;;;;13.51;100.00;100109.96;185397;1232;43474;-64
2023/05/16 15:51:12;;;;;;;21.10;16.70;;;;;;;13.59;100.00;100116.50;185432;1233;45069;-62
2023/05/16 15:55:15;;;;;;;17.20;13.30;;;;;;;13.69;100.00;100120.20;185462;1233;43918;-62
2023/05/16 15:59:17;;;;;;;23.30;15.00;;;;;;;13.74;100.00;100117.05;185420;1235;44952;-62
2023/05/16 16:03:20;;;;;;;18.60;15.40;;;;;;;13.77;100.00;100123.88;185331;1232;57184;-62
2023/05/16 16:07:21;;;;;;;23.60;15.90;;;;;;;13.77;100.00;100126.05;185092;1232;43729;-62
2023/05/16 16:11:25;;;;;;;18.40;15.00;;;;;;;13.80;100.00;100124.63;185337;1234;43908;-61
2023/05/16 16:15:30;;;;;;;20.50;14.20;;;;;;;13.72;100.00;100123.48;185369;1235;44833;-62
2023/05/16 16:19:34;;;;;;;20.80;15.00;;;;;;;13.73;100.00;100119.31;185504;1235;44928;-62
2023/05/16 16:23:36;;;;;;;19.40;12.50;;;;;;;13.67;100.00;100121.45;185438;1235;59109;-62
2023/05/16 16:27:38;;;;;;;21.50;15.80;;;;;;;13.62;100.00;100126.05;185470;1233;43514;-61
2023/05/16 16:31:39;;;;;;;24.70;16.40;;;;;;;13.65;100.00;100132.76;185526;1235;43603;-62
2023/05/16 16:35:42;;;;;;;20.60;14.70;;;;;;;13.56;100.00;100130.16;185316;1234;45996;-62
2023/05/16 16:39:44;;;;;;;19.00;14.40;;;;;;;13.51;100.00;100137.21;185371;1233;44853;-62
2023/05/16 16:44:00;;;;;;;25.00;17.10;;;;;;;13.51;100.00;100140.11;185370;1235;43522;-61
2023/05/16 16:48:01;;;;;;;19.60;15.10;;;;;;;13.52;100.00;100144.08;185345;1233;46028;-62
2023/05/16 16:52:03;;;;;;;19.40;14.80;;;;;;;13.49;100.00;100144.06;185292;1232;45954;-61
2023/05/16 16:56:12;;;;;;;22.20;17.30;;;;;;;13.49;100.00;100150.25;185275;1233;43793;-61
2023/05/16 17:00:15;;;;;;;19.40;14.80;;;;;;;13.48;100.00;100166.04;185349;1234;46310;-61
2023/05/16 17:04:45;;;;;;;26.70;17.50;;;;;;;13.42;100.00;100173.15;185161;1234;57192;-61
2023/05/16 17:08:46;;;;;;;27.80;16.90;;;;;;;13.46;100.00;100179.90;185313;1234;45012;-61
2023/05/16 17:44:48;;;;;;;34.00;24.40;;;;;;;13.20;100.00;100211.45;185346;1235;43507;-65
2023/05/16 17:48:50;;;;;;;38.60;26.40;;;;;;;13.13;100.00;100211.35;185313;1236;45955;-65
2023/05/16 17:52:53;;;;;;;29.30;22.00;;;;;;;13.07;100.00;100215.23;184946;1233;58324;-65
2023/05/16 17:56:56;;;;;;;24.70;19.00;;;;;;;12.99;100.00;100214.44;185245;1233;44614;-65
2023/05/16 18:01:26;;;;;;;23.70;18.60;;;;;;;12.86;100.00;100213.09;185329;1236;44855;-64
2023/05/16 18:05:28;;;;;;;31.10;22.30;;;;;;;12.80;100.00;100213.82;185218;1237;45959;-65
2023/05/16 18:09:30;;;;;;;29.60;21.40;;;;;;;12.73;100.00;100210.02;185160;1237;45935;-64
2023/05/16 18:13:33;;;;;;;29.90;23.10;;;;;;;12.65;100.00;100210.45;185132;1235;58468;-65
2023/05/16 18:17:35;;;;;;;29.00;22.20;;;;;;;12.57;100.00;100213.75;185319;1235;43922;-65
2023/05/16 18:21:39;;;;;;;23.20;19.80;;;;;;;12.57;100.00;100213.98;185199;1235;45871;-65
2023/05/16 18:25:46;;;;;;;25.20;20.10;;;;;;;12.55;100.00;100215.95;185213;1235;43586;-65
2023/05/16 18:29:47;;;;;;;21.90;17.20;;;;;;;12.56;100.00;100218.19;185047;1233;44635;-64
2023/05/16 18:33:49;;;;;;;24.10;18.20;;;;;;;12.53;100.00;100219.72;185091;1234;57075;-65
2023/05/16 18:37:51;;;;;;;32.00;21.90;;;;;;;12.59;100.00;100220.74;185036;1234;43496;-64
2023/05/16 18:41:52;;;;;;;22.40;15.30;;;;;;;12.55;100.00;100225.34;185261;1233;45131;-63
2023/05/16 18:46:05;;;;;;;22.20;15.40;;;;;;;12.51;100.00;100235.37;185185;1235;43643;-62
2023/05/16 18:50:07;;;;;;;24.90;15.50;;;;;;;12.45;100.00;100240.34;185061;1235;45005;-63
2023/05/16 18:54:10;;;;;;;19.40;15.20;;;;;;;12.50;100.00;100248.77;185242;1235;58932;-63
2023/05/16 18:58:12;;;;;;;22.30;16.40;;;;;;;12.44;100.00;100250.70;185162;1235;43854;-63
2023/05/16 19:02:13;;;;;;;24.50;18.20;;;;;;;12.39;100.00;100248.81;185159;1234;45895;-63
2023/05/16 19:06:18;;;;;;;17.90;15.30;;;;;;;12.35;100.00;100252.73;185205;1235;45010;-63
2023/05/16 19:10:20;;;;;;;20.70;17.70;;;;;;;12.30;100.00;100254.07;185172;1235;43571;-62
2023/05/16 19:14:22;;;;;;;25.90;19.40;;;;;;;12.23;100.00;100254.71;185305;1233;58103;-63
2023/05/16 19:18:24;;;;;;;16.10;13.40;;;;;;;12.27;100.00;100257.78;185455;1235;43543;-64
2023/05/16 19:22:26;;;;;;;17.40;14.30;;;;;;;12.20;100.00;100261.92;185431;1235;46035;-63
2023/05/16 19:26:28;;;;;;;17.20;13.40;;;;;;;12.25;100.00;100267.66;185211;1234;45849;-63
2023/05/16 19:30:30;;;;;;;21.00;14.80;;;;;;;12.26;100.00;100272.43;185259;1234;44740;-64
2023/05/16 19:34:32;;;;;;;18.60;14.60;;;;;;;12.21;100.00;100274.64;185268;1233;58833;-64
2023/05/16 19:38:36;;;;;;;18.90;14.90;;;;;;;12.24;100.00;100275.45;184948;1235;44800;-63
2023/05/16 19:42:56;;;;;;;18.40;12.80;;;;;;;12.24;100.00;100282.73;185103;1234;232439;-64
2023/05/16 19:46:58;;;;;;;19.30;13.70;;;;;;;12.23;100.00;100284.10;185031;1233;46041;-63
2023/05/16 19:51:00;;;;;;;14.10;11.90;;;;;;;12.23;100.00;100285.45;185201;1235;43575;-64
2023/05/16 19:55:05;;;;;;;13.30;11.30;;;;;;;12.22;100.00;100286.29;185338;1235;59584;-64
2023/05/16 19:59:07;;;;;;;15.60;10.90;;;;;;;12.26;100.00;100291.80;185123;1235;43766;-64
2023/05/16 20:03:10;;;;;;;13.00;11.60;;;;;;;12.28;100.00;100290.88;185277;1235;45063;-65
2023/05/16 20:07:12;;;;;;;15.60;11.80;;;;;;;12.24;100.00;100289.50;185099;1234;46117;-64
2023/05/16 20:11:14;;;;;;;16.60;13.30;;;;;;;12.19;100.00;100294.78;185269;1234;43577;-64
2023/05/16 20:15:17;;;;;;;15.70;12.90;;;;;;;12.27;100.00;100292.98;185244;1235;58720;-64